Time;durP1;ratioP1;P1;durP2;ratioP2;P2;SDS_P1;SDS_P2;PMS_P1;PMS_P2;Temp;Humidity;BMP_temperature;BMP_pressure;BME280_temperature;BME280_humidity;BME280_pressure;Samples;Min_cycle;Max_cycle;Signal;HPM_P1;HPM_P2
2022/12/09 00:00:17;;;;;;;14.53;8.43;;;23.80;92.60;;;;;;1840457;77;21182;-89
2022/12/09 00:02:48;;;;;;;15.13;8.43;;;23.90;92.70;;;;;;1823897;78;21112;-87
2022/12/09 00:05:20;;;;;;;15.28;9.15;;;23.90;92.90;;;;;;1835032;77;21160;-88
2022/12/09 00:07:51;;;;;;;14.85;8.40;;;23.90;92.90;;;;;;1831501;77;21105;-87
2022/12/09 00:10:22;;;;;;;15.80;9.40;;;23.80;92.90;;;;;;1838287;77;21056;-87
2022/12/09 00:12:55;;;;;;;16.12;11.12;;;23.70;92.90;;;;;;1838951;77;21170;-89
2022/12/09 00:15:25;;;;;;;17.17;10.65;;;23.70;93.20;;;;;;1828752;77;21115;-88
2022/12/09 00:17:56;;;;;;;14.63;11.83;;;23.70;93.10;;;;;;1830126;77;21123;-88
2022/12/09 00:20:27;;;;;;;15.75;11.25;;;23.70;93.10;;;;;;1832417;78;21221;-88
2022/12/09 00:22:58;;;;;;;16.10;10.93;;;23.70;93.10;;;;;;1834504;77;21153;-89
2022/12/09 00:25:29;;;;;;;14.98;11.18;;;23.70;93.10;;;;;;1828462;76;21218;-68
2022/12/09 00:28:00;;;;;;;15.98;11.15;;;23.80;93.20;;;;;;1840431;77;21154;-69
2022/12/09 00:30:31;;;;;;;14.90;9.90;;;23.80;93.30;;;;;;1809296;78;21752;-69
2022/12/09 00:33:02;;;;;;;12.63;8.55;;;23.80;93.30;;;;;;1830337;77;21115;-68
2022/12/09 00:35:32;;;;;;;17.55;9.93;;;23.80;93.40;;;;;;1828755;77;21103;-69
2022/12/09 00:38:04;;;;;;;13.13;9.13;;;23.80;93.40;;;;;;1832775;77;21252;-68
2022/12/09 00:40:35;;;;;;;16.20;9.28;;;23.90;93.40;;;;;;1825236;77;21272;-68
2022/12/09 00:43:06;;;;;;;12.15;8.23;;;24.00;93.30;;;;;;1826694;77;21179;-68
2022/12/09 00:45:38;;;;;;;15.28;8.30;;;24.10;93.10;;;;;;1830623;77;21208;-68
2022/12/09 00:48:08;;;;;;;12.65;8.43;;;24.20;92.80;;;;;;1824259;77;21068;-69
2022/12/09 00:50:40;;;;;;;19.02;8.58;;;24.30;92.60;;;;;;1824971;77;21247;-69
2022/12/09 00:53:10;;;;;;;10.40;6.90;;;24.40;92.40;;;;;;1831189;78;21634;-69
2022/12/09 00:55:43;;;;;;;8.78;5.83;;;24.50;92.00;;;;;;1836511;77;21763;-69
2022/12/09 00:58:15;;;;;;;9.23;5.78;;;24.60;91.70;;;;;;1824915;78;21154;-69
2022/12/09 01:00:46;;;;;;;11.20;7.00;;;24.60;91.40;;;;;;1832923;77;21253;-70
2022/12/09 01:03:18;;;;;;;9.20;6.12;;;24.70;91.20;;;;;;1819855;78;21169;-70
2022/12/09 01:05:49;;;;;;;7.53;5.25;;;24.70;91.10;;;;;;1762374;79;21207;-70
2022/12/09 01:08:20;;;;;;;9.05;6.65;;;24.70;91.00;;;;;;1771029;79;21156;-69
2022/12/09 01:10:53;;;;;;;9.25;5.95;;;24.70;91.00;;;;;;1768549;79;21627;-71
2022/12/09 01:13:24;;;;;;;9.73;6.78;;;24.70;90.90;;;;;;1774710;78;21155;-70
2022/12/09 01:15:55;;;;;;;10.90;7.25;;;24.80;91.10;;;;;;1778228;78;21174;-71
2022/12/09 01:18:26;;;;;;;11.20;7.92;;;24.80;91.10;;;;;;1776826;78;21288;-72
2022/12/09 01:20:59;;;;;;;12.18;7.25;;;24.90;91.00;;;;;;1777698;78;21203;-69
2022/12/09 01:23:30;;;;;;;9.78;6.17;;;24.90;90.80;;;;;;1777818;78;21705;-69
2022/12/09 01:26:05;;;;;;;8.60;6.12;;;25.00;90.80;;;;;;1778540;78;21190;-69
2022/12/09 01:28:39;;;;;;;9.60;5.53;;;25.00;90.60;;;;;;1779299;78;21128;-68
2022/12/09 01:31:12;;;;;;;9.83;4.72;;;25.10;90.40;;;;;;1778450;78;21183;-68
2022/12/09 01:33:44;;;;;;;9.25;5.12;;;25.20;90.20;;;;;;1775527;78;21191;-68
2022/12/09 01:36:18;;;;;;;9.25;5.42;;;25.30;90.10;;;;;;1775157;78;21319;-69
2022/12/09 01:38:49;;;;;;;10.65;5.42;;;25.30;89.90;;;;;;1777539;78;21175;-68
2022/12/09 01:41:21;;;;;;;9.90;6.35;;;25.40;89.50;;;;;;1779400;78;21100;-69
2022/12/09 01:44:14;;;;;;;8.58;6.00;;;25.40;89.50;;;;;;1780115;78;21135;-70
2022/12/09 01:46:45;;;;;;;12.40;6.90;;;25.40;89.10;;;;;;1782384;78;21186;-69
2022/12/09 01:49:24;;;;;;;13.30;7.22;;;25.50;88.90;;;;;;1781075;78;21256;-70
2022/12/09 01:52:15;;;;;;;10.05;7.08;;;25.50;88.90;;;;;;1777090;78;21748;-69
2022/12/09 01:54:52;;;;;;;14.00;7.53;;;25.50;88.80;;;;;;1784521;78;21165;-71
2022/12/09 01:57:24;;;;;;;9.28;6.35;;;25.50;89.00;;;;;;1771369;78;21179;-71
2022/12/09 01:59:55;;;;;;;12.30;7.45;;;25.50;89.00;;;;;;1779125;78;21234;-72
2022/12/09 02:02:27;;;;;;;13.60;6.53;;;25.50;89.10;;;;;;1779371;78;21163;-71
2022/12/09 02:04:59;;;;;;;6.85;5.12;;;25.50;89.10;;;;;;1800320;77;21132;-70
2022/12/09 02:07:31;;;;;;;8.45;5.50;;;25.60;88.70;;;;;;1816552;76;21179;-69
2022/12/09 02:10:07;;;;;;;9.23;5.97;;;25.60;88.30;;;;;;1819423;77;21230;-70
2022/12/09 02:13:02;;;;;;;8.20;4.87;;;25.60;87.90;;;;;;1818821;77;21213;-70
2022/12/09 02:15:46;;;;;;;8.88;5.00;;;25.70;87.90;;;;;;1819004;77;21242;-70
2022/12/09 02:18:20;;;;;;;7.80;4.92;;;25.80;87.40;;;;;;1813233;78;21147;-71
2022/12/09 02:20:56;;;;;;;7.50;4.58;;;25.80;87.30;;;;;;1818674;77;21164;-71
2022/12/09 02:23:38;;;;;;;7.22;4.40;;;25.90;87.20;;;;;;1817703;77;21257;-70
2022/12/09 02:26:32;;;;;;;7.42;4.78;;;25.90;87.00;;;;;;1818348;77;21130;-68
2022/12/09 02:29:25;;;;;;;12.73;3.85;;;25.90;86.80;;;;;;1821290;78;21188;-68
2022/12/09 02:32:10;;;;;;;6.37;4.05;;;26.00;86.30;;;;;;1818826;78;21111;-69
2022/12/09 02:34:57;;;;;;;5.35;3.58;;;26.10;86.20;;;;;;1807232;78;21774;-68
2022/12/09 02:37:30;;;;;;;6.25;3.67;;;26.10;85.50;;;;;;1820079;78;21186;-69
2022/12/09 02:40:07;;;;;;;5.03;3.25;;;26.20;85.20;;;;;;1782241;79;21264;-69
2022/12/09 02:42:46;;;;;;;8.75;4.30;;;26.20;84.80;;;;;;1815174;78;21821;-69
2022/12/09 02:45:19;;;;;;;9.75;4.50;;;26.20;84.60;;;;;;1814566;77;21195;-69
2022/12/09 02:47:52;;;;;;;6.60;3.65;;;26.30;84.50;;;;;;1817563;77;21163;-69
2022/12/09 02:50:25;;;;;;;6.75;3.40;;;26.30;84.70;;;;;;1817433;77;21164;-70
2022/12/09 02:53:00;;;;;;;5.30;3.22;;;26.30;84.80;;;;;;1818437;78;21152;-70
2022/12/09 02:55:40;;;;;;;3.98;2.67;;;26.30;84.70;;;;;;1831057;78;21222;-70
2022/12/09 02:58:08;;;;;;;5.95;3.25;;;26.30;84.50;;;;;;1808949;78;21159;-69
2022/12/09 03:00:42;;;;;;;7.35;3.92;;;26.30;84.30;;;;;;1811642;78;21191;-68
2022/12/09 03:03:20;;;;;;;5.28;3.22;;;26.40;84.40;;;;;;1819127;78;21175;-68
2022/12/09 03:06:03;;;;;;;6.25;3.20;;;26.50;83.80;;;;;;1808918;78;21119;-69
2022/12/09 03:08:53;;;;;;;5.92;2.85;;;26.50;83.70;;;;;;1815688;78;21102;-68
2022/12/09 03:11:28;;;;;;;5.50;3.12;;;26.60;83.30;;;;;;1814285;78;21151;-69
2022/12/09 03:14:16;;;;;;;5.03;3.40;;;26.70;83.20;;;;;;1817682;78;21167;-70
2022/12/09 03:17:06;;;;;;;5.25;3.47;;;26.80;82.80;;;;;;1787535;79;21556;-70
2022/12/09 03:19:46;;;;;;;4.85;3.05;;;26.80;82.70;;;;;;1811281;78;21186;-69
2022/12/09 03:22:19;;;;;;;5.55;3.10;;;26.80;82.70;;;;;;1822876;77;21580;-70
2022/12/09 03:24:57;;;;;;;6.75;3.83;;;26.90;82.50;;;;;;1809916;78;21242;-69
2022/12/09 03:27:34;;;;;;;6.35;4.05;;;27.00;82.40;;;;;;1809206;78;21615;-69
2022/12/09 03:30:10;;;;;;;4.58;2.70;;;27.00;81.70;;;;;;1813849;78;22079;-69
2022/12/09 03:32:48;;;;;;;6.37;3.45;;;27.10;81.50;;;;;;1814141;77;21140;-69
2022/12/09 03:35:27;;;;;;;5.58;3.90;;;27.20;81.70;;;;;;1795708;78;21063;-67
2022/12/09 03:38:01;;;;;;;5.40;2.75;;;27.20;81.80;;;;;;1809953;78;21140;-70
2022/12/09 03:40:34;;;;;;;3.50;2.35;;;27.30;81.10;;;;;;1821325;78;21261;-69
2022/12/09 03:43:07;;;;;;;5.42;2.70;;;27.50;80.80;;;;;;1814610;78;21262;-70
2022/12/09 03:45:41;;;;;;;4.42;2.80;;;27.60;79.40;;;;;;1826572;77;21118;-70
2022/12/09 03:48:12;;;;;;;6.55;2.95;;;27.70;79.40;;;;;;1812076;78;21203;-70
2022/12/09 03:51:01;;;;;;;4.97;2.95;;;27.80;78.50;;;;;;1819804;78;21064;-70
2022/12/09 03:53:40;;;;;;;6.22;3.47;;;28.00;79.10;;;;;;1819133;78;21172;-70
2022/12/09 03:56:19;;;;;;;5.40;2.60;;;28.00;78.40;;;;;;1799349;77;21690;-70
2022/12/09 03:58:52;;;;;;;3.30;2.08;;;28.00;78.00;;;;;;1823711;78;21669;-70
2022/12/09 04:01:26;;;;;;;5.05;2.55;;;28.20;77.80;;;;;;1814369;78;21164;-69
2022/12/09 04:03:57;;;;;;;3.02;2.25;;;28.20;77.80;;;;;;1786779;79;21264;-69
2022/12/09 04:06:29;;;;;;;3.08;2.50;;;28.30;77.50;;;;;;1806430;78;21746;-69
2022/12/09 04:09:01;;;;;;;3.65;2.40;;;28.40;77.60;;;;;;1827802;78;21153;-69
2022/12/09 04:11:38;;;;;;;2.80;1.95;;;28.50;76.60;;;;;;1826871;76;21736;-70
2022/12/09 04:14:06;;;;;;;5.28;2.40;;;28.50;76.50;;;;;;1806763;79;21195;-70
2022/12/09 04:16:41;;;;;;;3.60;2.58;;;28.60;76.30;;;;;;1819896;77;21142;-70
2022/12/09 04:19:12;;;;;;;3.17;2.27;;;28.70;76.20;;;;;;1828169;77;21665;-71
2022/12/09 04:21:44;;;;;;;4.80;2.50;;;28.80;75.40;;;;;;1831439;76;21703;-70
2022/12/09 04:24:17;;;;;;;4.42;2.30;;;28.90;76.00;;;;;;1828429;78;21715;-70
2022/12/09 04:26:49;;;;;;;5.17;2.87;;;29.00;75.30;;;;;;1788414;79;21167;-71
2022/12/09 04:29:20;;;;;;;4.15;2.80;;;29.10;75.30;;;;;;1830009;78;21162;-70
2022/12/09 04:31:51;;;;;;;4.60;2.98;;;29.10;75.40;;;;;;1838111;77;21163;-70
2022/12/09 04:34:24;;;;;;;5.97;3.60;;;29.20;75.20;;;;;;1829589;77;21088;-71
2022/12/09 04:36:56;;;;;;;3.65;2.08;;;29.20;74.60;;;;;;1762211;80;21251;-71
2022/12/09 04:39:26;;;;;;;3.75;2.52;;;29.40;74.40;;;;;;1829815;77;21100;-71
2022/12/09 04:41:59;;;;;;;4.50;2.50;;;29.40;73.90;;;;;;1794448;79;21146;-71
2022/12/09 04:44:52;;;;;;;5.95;2.50;;;29.40;73.90;;;;;;1838209;78;21691;-70
2022/12/09 04:47:27;;;;;;;6.90;2.33;;;29.50;73.90;;;;;;1846860;76;21174;-71
2022/12/09 04:49:58;;;;;;;3.20;2.15;;;29.60;74.00;;;;;;1843505;76;21610;-71
2022/12/09 04:52:31;;;;;;;5.50;2.10;;;29.60;74.00;;;;;;1845964;76;21202;-70
2022/12/09 04:55:01;;;;;;;4.20;2.85;;;29.70;74.40;;;;;;1842685;75;21259;-70
2022/12/09 04:57:46;;;;;;;2.98;2.10;;;29.80;72.70;;;;;;1856316;76;21170;-71
2022/12/09 05:00:18;;;;;;;3.12;1.82;;;30.00;72.70;;;;;;1842439;76;21171;-71
2022/12/09 05:02:52;;;;;;;4.05;2.37;;;30.10;72.00;;;;;;1853923;76;22349;-70
2022/12/09 05:05:28;;;;;;;20.77;3.47;;;30.20;72.20;;;;;;1845225;76;21149;-70
2022/12/09 05:07:59;;;;;;;5.17;2.45;;;30.20;70.90;;;;;;1818443;77;21194;-69
2022/12/09 05:10:30;;;;;;;5.95;2.65;;;30.30;70.90;;;;;;1838827;76;21054;-71
2022/12/09 05:13:02;;;;;;;3.85;2.60;;;30.40;71.00;;;;;;1844666;76;21183;-71
2022/12/09 05:15:33;;;;;;;4.33;2.08;;;30.40;71.20;;;;;;1846658;76;21223;-71
2022/12/09 05:18:05;;;;;;;4.10;2.47;;;30.50;70.60;;;;;;1855788;76;21486;-70
2022/12/09 05:20:38;;;;;;;4.08;2.00;;;30.50;70.40;;;;;;1816271;77;21578;-70
2022/12/09 05:23:10;;;;;;;3.85;2.10;;;30.50;70.10;;;;;;1841073;76;21519;-70
2022/12/09 05:25:41;;;;;;;3.33;2.15;;;30.50;70.70;;;;;;1840288;76;21095;-71
2022/12/09 05:28:12;;;;;;;3.90;2.50;;;30.50;70.50;;;;;;1838782;76;21139;-70
2022/12/09 05:30:43;;;;;;;8.93;3.15;;;30.40;70.50;;;;;;1841351;76;21232;-71
2022/12/09 05:33:14;;;;;;;5.08;2.75;;;30.40;70.60;;;;;;1845577;76;21170;-70
2022/12/09 05:35:45;;;;;;;3.58;2.40;;;30.50;70.20;;;;;;1835942;76;21135;-70
2022/12/09 05:38:19;;;;;;;4.08;2.30;;;30.50;70.10;;;;;;1846680;76;21142;-70
2022/12/09 05:40:50;;;;;;;3.00;2.10;;;30.50;70.30;;;;;;1804549;77;21714;-70
2022/12/09 05:43:23;;;;;;;3.50;2.20;;;30.50;70.60;;;;;;1827109;77;21423;-70
2022/12/09 05:45:54;;;;;;;3.85;2.30;;;30.50;70.40;;;;;;1845603;76;21646;-70
2022/12/09 05:48:28;;;;;;;4.80;2.45;;;30.50;71.00;;;;;;1846228;76;21197;-70
2022/12/09 05:51:01;;;;;;;5.75;2.90;;;30.50;70.80;;;;;;1848000;76;21609;-71
2022/12/09 05:53:32;;;;;;;3.90;3.00;;;30.50;70.90;;;;;;1855752;76;21558;-70
2022/12/09 05:56:04;;;;;;;5.22;2.90;;;30.60;71.30;;;;;;1850211;76;21130;-70
2022/12/09 05:58:35;;;;;;;5.65;2.70;;;30.60;70.50;;;;;;1844229;76;21151;-71
2022/12/09 06:01:08;;;;;;;4.47;3.10;;;30.60;70.00;;;;;;1850322;76;21208;-70
2022/12/09 06:03:39;;;;;;;4.62;3.08;;;30.60;69.70;;;;;;1852612;76;21157;-71
2022/12/09 06:06:12;;;;;;;4.37;2.87;;;30.70;69.80;;;;;;1770145;80;21667;-70
2022/12/09 06:08:46;;;;;;;5.15;3.55;;;30.80;69.40;;;;;;1798767;78;21178;-71
2022/12/09 06:11:20;;;;;;;4.58;2.85;;;30.90;69.60;;;;;;1773713;80;21182;-71
2022/12/09 06:13:52;;;;;;;4.40;2.75;;;30.90;68.80;;;;;;1811307;77;21101;-70
2022/12/09 06:16:24;;;;;;;7.42;2.77;;;31.00;68.70;;;;;;1830292;77;21104;-70
2022/12/09 06:19:01;;;;;;;4.65;2.58;;;30.90;68.80;;;;;;1825730;77;21182;-70
2022/12/09 06:21:29;;;;;;;5.50;2.52;;;31.00;68.70;;;;;;1825488;77;21248;-71
2022/12/09 06:24:04;;;;;;;4.47;2.50;;;31.00;68.60;;;;;;1825109;77;21179;-70
2022/12/09 06:26:35;;;;;;;3.20;2.20;;;30.90;68.60;;;;;;1824923;77;21201;-70
2022/12/09 06:29:06;;;;;;;3.40;2.08;;;30.80;68.40;;;;;;1826093;77;21087;-70
2022/12/09 06:31:44;;;;;;;3.95;2.50;;;30.60;69.30;;;;;;1816758;77;21220;-69
2022/12/09 06:34:15;;;;;;;4.28;2.47;;;30.50;69.70;;;;;;1822810;77;21193;-69
2022/12/09 06:37:02;;;;;;;7.40;2.45;;;30.50;69.30;;;;;;1823495;77;21167;-70
2022/12/09 06:39:25;;;;;;;3.52;1.98;;;30.40;69.50;;;;;;1828150;77;21158;-73
2022/12/09 06:42:05;;;;;;;3.22;2.00;;;30.40;69.50;;;;;;1823844;77;21154;-73
2022/12/09 06:44:34;;;;;;;4.05;2.45;;;30.50;69.50;;;;;;1823806;77;21138;-70
2022/12/09 06:47:09;;;;;;;3.50;2.22;;;30.50;69.70;;;;;;1825816;77;21623;-71
2022/12/09 06:49:40;;;;;;;4.62;2.47;;;30.50;69.90;;;;;;1790154;78;21310;-71
2022/12/09 06:52:13;;;;;;;4.30;2.00;;;30.60;69.60;;;;;;1822993;77;21166;-72
2022/12/09 06:54:45;;;;;;;4.20;2.10;;;30.70;70.00;;;;;;1791303;78;21144;-70
2022/12/09 06:57:18;;;;;;;3.60;2.15;;;30.70;69.50;;;;;;1831934;77;21154;-72
2022/12/09 06:59:52;;;;;;;3.47;2.08;;;30.70;69.30;;;;;;1802348;77;21223;-71
2022/12/09 07:02:24;;;;;;;5.67;2.77;;;30.70;70.00;;;;;;1780212;79;21079;-70
2022/12/09 07:04:57;;;;;;;8.45;5.80;;;30.60;69.80;;;;;;1761005;79;21186;-71
2022/12/09 07:07:28;;;;;;;4.35;2.60;;;30.60;69.70;;;;;;1794880;77;21186;-71
2022/12/09 07:10:05;;;;;;;5.47;3.35;;;30.60;69.50;;;;;;1786772;77;21165;-72
2022/12/09 07:12:36;;;;;;;4.85;2.83;;;30.70;69.40;;;;;;1836549;77;21574;-71
2022/12/09 07:15:08;;;;;;;3.50;2.27;;;30.80;69.60;;;;;;1799878;77;21142;-70
2022/12/09 07:17:40;;;;;;;4.80;2.75;;;30.80;69.20;;;;;;1758186;80;21164;-72
2022/12/09 07:20:11;;;;;;;7.78;3.50;;;30.70;69.40;;;;;;1794279;78;21259;-71
2022/12/09 07:22:44;;;;;;;3.08;2.17;;;30.70;69.50;;;;;;1794195;78;21735;-70
2022/12/09 07:25:16;;;;;;;4.60;2.10;;;30.70;69.30;;;;;;1790559;78;21150;-72
2022/12/09 07:27:48;;;;;;;6.50;2.30;;;30.80;70.00;;;;;;1793273;78;21195;-70
2022/12/09 07:30:19;;;;;;;4.03;2.50;;;30.70;69.50;;;;;;1807772;78;21102;-70
2022/12/09 07:32:51;;;;;;;3.35;2.55;;;30.60;69.40;;;;;;1797483;77;21086;-70
2022/12/09 07:35:23;;;;;;;19.37;3.95;;;30.60;69.60;;;;;;1798144;78;21372;-71
2022/12/09 07:38:02;;;;;;;6.30;3.55;;;30.50;69.30;;;;;;1786925;76;21657;-71
2022/12/09 07:40:34;;;;;;;14.50;3.72;;;30.40;70.10;;;;;;1797941;78;21590;-70
2022/12/09 07:43:06;;;;;;;34.45;5.17;;;30.40;70.20;;;;;;1804254;77;21185;-71
2022/12/09 07:45:37;;;;;;;5.62;2.50;;;30.40;69.90;;;;;;1813465;78;21122;-71
2022/12/09 07:48:09;;;;;;;4.45;2.55;;;30.40;70.00;;;;;;1790834;77;21181;-70
2022/12/09 07:50:45;;;;;;;4.03;2.42;;;30.40;70.30;;;;;;1837952;77;21146;-71
2022/12/09 07:53:16;;;;;;;3.77;2.27;;;30.50;70.50;;;;;;1835639;77;21212;-71
2022/12/09 07:55:47;;;;;;;4.55;2.22;;;30.50;69.70;;;;;;1823243;77;21546;-72
2022/12/09 07:58:19;;;;;;;3.67;2.12;;;30.60;69.50;;;;;;1828069;77;21220;-73
2022/12/09 08:00:50;;;;;;;3.22;2.00;;;30.60;69.20;;;;;;1832636;77;21715;-71
2022/12/09 08:03:22;;;;;;;4.53;2.15;;;30.60;69.10;;;;;;1825422;77;21143;-71
2022/12/09 08:05:54;;;;;;;3.83;2.30;;;30.60;69.00;;;;;;1826703;77;21182;-71
2022/12/09 08:08:26;;;;;;;4.12;2.60;;;30.60;69.30;;;;;;1785551;79;21151;-72
2022/12/09 08:10:59;;;;;;;5.08;2.77;;;30.60;69.50;;;;;;1828297;77;21143;-72
2022/12/09 08:13:30;;;;;;;3.92;2.15;;;30.70;69.10;;;;;;1823955;77;21170;-71
2022/12/09 08:16:07;;;;;;;5.33;2.37;;;30.80;68.70;;;;;;1827472;77;21225;-73
2022/12/09 08:18:39;;;;;;;6.50;2.17;;;30.70;68.90;;;;;;1830192;77;21135;-72
2022/12/09 08:21:12;;;;;;;5.67;2.90;;;30.70;68.80;;;;;;1830832;77;21146;-72
2022/12/09 08:23:44;;;;;;;4.95;2.50;;;30.70;69.30;;;;;;1830267;77;21190;-72
2022/12/09 08:26:16;;;;;;;5.12;2.70;;;30.70;68.80;;;;;;1836180;77;21512;-71
2022/12/09 08:28:49;;;;;;;6.15;2.60;;;30.70;68.60;;;;;;1827281;77;22360;-71
2022/12/09 08:31:23;;;;;;;7.70;2.90;;;30.70;70.40;;;;;;1827965;77;21630;-72
2022/12/09 08:33:59;;;;;;;4.97;2.60;;;30.80;69.30;;;;;;1835522;77;21143;-70
2022/12/09 08:36:33;;;;;;;5.70;2.65;;;30.80;69.10;;;;;;1833287;77;21222;-73
2022/12/09 08:39:05;;;;;;;5.60;3.05;;;30.80;69.70;;;;;;1792620;79;21166;-72
2022/12/09 08:41:40;;;;;;;7.10;3.10;;;30.80;68.60;;;;;;1830605;77;21264;-70
2022/12/09 08:44:17;;;;;;;4.85;2.35;;;30.80;68.80;;;;;;1834245;77;21247;-71
2022/12/09 08:46:51;;;;;;;4.50;2.58;;;30.80;68.80;;;;;;1823678;77;21166;-71
2022/12/09 08:49:23;;;;;;;6.10;3.20;;;30.70;68.80;;;;;;1826814;77;21182;-72
2022/12/09 08:51:54;;;;;;;4.55;2.42;;;30.70;69.00;;;;;;1822095;77;21197;-71
2022/12/09 08:54:27;;;;;;;3.65;2.58;;;30.60;69.00;;;;;;1828995;77;21182;-69
2022/12/09 08:56:59;;;;;;;5.42;2.15;;;30.60;69.10;;;;;;1815937;77;21142;-70
2022/12/09 08:59:30;;;;;;;4.15;2.02;;;30.50;69.20;;;;;;1825949;77;21108;-70
2022/12/09 09:02:01;;;;;;;3.27;2.20;;;30.50;69.00;;;;;;1821130;77;21130;-71
2022/12/09 09:04:33;;;;;;;8.63;4.62;;;30.50;68.70;;;;;;1819546;77;21249;-72
2022/12/09 09:07:08;;;;;;;9.43;2.80;;;30.50;69.30;;;;;;1822515;77;21183;-71
2022/12/09 09:09:44;;;;;;;4.35;2.40;;;30.50;69.20;;;;;;1823023;77;21131;-72
2022/12/09 09:12:16;;;;;;;5.80;2.47;;;30.40;69.20;;;;;;1826212;77;21509;-69
2022/12/09 09:14:51;;;;;;;5.78;2.72;;;30.30;69.70;;;;;;1825399;77;21075;-72
2022/12/09 09:17:25;;;;;;;6.50;3.33;;;30.30;70.20;;;;;;1828240;77;21727;-71
2022/12/09 09:20:03;;;;;;;4.83;2.52;;;30.20;70.20;;;;;;1806982;77;21741;-71
2022/12/09 09:22:35;;;;;;;4.62;2.47;;;30.20;70.00;;;;;;1781008;79;21260;-71
2022/12/09 09:25:24;;;;;;;4.90;2.72;;;30.20;70.30;;;;;;1786522;78;21316;-71
2022/12/09 09:27:55;;;;;;;4.10;2.60;;;30.20;70.50;;;;;;1778999;79;21131;-72
2022/12/09 09:30:26;;;;;;;5.17;2.40;;;30.20;71.10;;;;;;1782347;79;21519;-72
2022/12/09 09:32:58;;;;;;;4.92;2.60;;;30.20;70.20;;;;;;1850613;76;21835;-71
2022/12/09 09:35:30;;;;;;;3.67;2.67;;;30.30;70.20;;;;;;1848854;76;21125;-70
2022/12/09 09:38:03;;;;;;;5.30;2.77;;;30.20;69.70;;;;;;1854787;76;21272;-71
2022/12/09 09:40:34;;;;;;;4.87;2.27;;;30.20;70.10;;;;;;1850104;76;21158;-71
2022/12/09 09:43:06;;;;;;;4.87;2.75;;;30.20;70.10;;;;;;1847029;76;21181;-71
2022/12/09 09:45:37;;;;;;;4.65;2.98;;;30.20;70.40;;;;;;1852513;76;21110;-71
2022/12/09 09:48:11;;;;;;;5.97;2.80;;;30.10;70.40;;;;;;1859251;76;21190;-72
2022/12/09 09:51:07;;;;;;;6.03;3.40;;;30.10;70.40;;;;;;1830349;76;21190;-72
2022/12/09 09:53:39;;;;;;;7.05;2.98;;;30.10;70.40;;;;;;1823869;76;21177;-71
2022/12/09 09:56:30;;;;;;;4.28;2.67;;;30.00;70.60;;;;;;1826192;76;21185;-72
2022/12/09 09:59:29;;;;;;;5.10;2.80;;;30.00;71.00;;;;;;1828479;77;21171;-72
2022/12/09 10:02:19;;;;;;;4.75;2.35;;;30.00;70.70;;;;;;1779860;78;21147;-71
2022/12/09 10:05:17;;;;;;;5.75;2.92;;;29.90;70.90;;;;;;1783473;78;21151;-71
2022/12/09 10:07:51;;;;;;;5.85;3.20;;;29.90;71.20;;;;;;1834495;76;21855;-71
2022/12/09 10:10:40;;;;;;;6.15;3.33;;;29.80;71.60;;;;;;1830877;76;21111;-70
2022/12/09 10:13:14;;;;;;;5.03;3.52;;;29.80;71.60;;;;;;1826792;76;21196;-72
2022/12/09 10:15:49;;;;;;;7.08;3.72;;;29.80;71.80;;;;;;1838102;76;21158;-84
2022/12/09 10:18:24;;;;;;;7.47;3.72;;;29.80;72.10;;;;;;1835018;76;21218;-84
2022/12/09 10:20:56;;;;;;;6.28;4.10;;;29.80;72.10;;;;;;1839595;76;21241;-83
2022/12/09 10:23:32;;;;;;;6.53;3.65;;;29.70;72.20;;;;;;1841294;76;21199;-84
2022/12/09 10:26:06;;;;;;;5.92;3.83;;;29.70;72.30;;;;;;1840073;76;21177;-84
2022/12/09 10:28:42;;;;;;;7.72;4.03;;;29.70;72.40;;;;;;1801569;78;21194;-87
2022/12/09 10:31:13;;;;;;;6.75;4.12;;;29.70;72.40;;;;;;1836347;76;21131;-88
2022/12/09 10:33:45;;;;;;;6.67;3.70;;;29.70;72.50;;;;;;1793484;78;21134;-89
2022/12/09 10:36:28;;;;;;;5.22;3.62;;;29.70;72.60;;;;;;1789164;78;21149;-89
2022/12/09 10:39:00;;;;;;;6.75;3.62;;;29.70;72.80;;;;;;1785376;78;21175;-88
2022/12/09 10:44:37;;;;;;;7.12;3.75;;;29.60;73.10;;;;;;1834313;77;21133;-87
2022/12/09 10:47:23;;;;;;;7.12;5.67;;;29.50;73.30;;;;;;1793558;78;22552;-83
2022/12/09 10:49:58;;;;;;;6.83;4.00;;;29.50;73.40;;;;;;1832145;76;21198;-83
2022/12/09 10:52:32;;;;;;;6.97;4.45;;;29.50;73.70;;;;;;1832170;76;21753;-84
2022/12/09 10:55:07;;;;;;;9.18;4.97;;;29.50;73.80;;;;;;1839395;77;21190;-84
2022/12/09 10:57:38;;;;;;;9.63;6.08;;;29.40;74.00;;;;;;1828898;77;21241;-84
2022/12/09 11:00:12;;;;;;;9.13;5.37;;;29.40;74.10;;;;;;1831157;77;21187;-84
2022/12/09 11:02:45;;;;;;;;;;;29.40;74.20;;;;;;1835276;76;21121;-84
2022/12/09 11:05:28;;;;;;;10.78;5.78;;;29.30;74.20;;;;;;1783587;78;20290;-82
2022/12/09 11:07:59;;;;;;;9.35;4.80;;;29.30;74.60;;;;;;1784345;79;21093;-84
2022/12/09 11:10:35;;;;;;;8.85;4.80;;;29.30;74.50;;;;;;1793612;78;21646;-82
2022/12/09 11:13:08;;;;;;;6.53;4.90;;;29.30;74.50;;;;;;1777920;79;21219;-85
2022/12/09 11:15:44;;;;;;;15.98;6.35;;;29.30;74.60;;;;;;1820839;77;21184;-83
2022/12/09 11:18:26;;;;;;;10.05;6.00;;;29.30;74.70;;;;;;1798897;78;21185;-85
2022/12/09 11:21:00;;;;;;;7.35;5.80;;;29.30;74.60;;;;;;1826765;77;21177;-83
2022/12/09 11:23:32;;;;;;;12.40;5.70;;;29.30;74.70;;;;;;1819040;77;21206;-84
2022/12/09 11:26:05;;;;;;;8.70;5.37;;;29.20;74.70;;;;;;1835472;77;21197;-84
2022/12/09 11:28:39;;;;;;;8.55;5.20;;;29.20;74.80;;;;;;1747713;80;21736;-83
2022/12/09 11:31:19;;;;;;;8.13;5.42;;;29.20;74.80;;;;;;1827388;77;21268;-84
2022/12/09 11:33:56;;;;;;;7.53;5.40;;;29.20;74.90;;;;;;1827131;77;21243;-84
2022/12/09 11:36:33;;;;;;;9.98;5.03;;;29.20;75.00;;;;;;1827515;77;21068;-83
2022/12/09 11:39:16;;;;;;;8.65;5.72;;;29.20;75.00;;;;;;1827267;76;21082;-84
2022/12/09 11:44:40;;;;;;;8.38;5.12;;;29.20;75.30;;;;;;1828000;76;21112;-83
2022/12/09 11:47:13;;;;;;;12.03;8.25;;;29.20;75.40;;;;;;1828732;76;21178;-84
2022/12/09 11:50:23;;;;;;;10.13;7.87;;;29.10;75.40;;;;;;1832873;76;21079;-83
2022/12/09 11:53:12;;;;;;;13.08;6.53;;;29.10;75.40;;;;;;1841308;76;21243;-84
2022/12/09 11:55:48;;;;;;;8.78;6.28;;;29.10;75.40;;;;;;1759355;79;21174;-84
2022/12/09 11:58:22;;;;;;;14.80;7.37;;;29.10;75.60;;;;;;1814310;77;21558;-83
2022/12/09 12:01:07;;;;;;;11.25;7.55;;;29.10;75.60;;;;;;1824833;77;21220;-84
2022/12/09 12:03:43;;;;;;;12.15;7.75;;;29.10;75.90;;;;;;1834295;77;21244;-84
2022/12/09 12:06:20;;;;;;;10.75;7.83;;;29.00;76.00;;;;;;1829595;76;21096;-85
2022/12/09 12:08:51;;;;;;;;;;;29.00;76.20;;;;;;1830965;77;21535;-84
2022/12/09 12:11:27;;;;;;;13.28;9.08;;;29.00;76.10;;;;;;1826905;77;20218;-85
2022/12/09 12:14:04;;;;;;;20.25;9.65;;;29.00;76.40;;;;;;1834248;76;21264;-84
2022/12/09 12:16:38;;;;;;;;;;;29.00;76.70;;;;;;1831887;76;21760;-86
2022/12/09 12:19:15;;;;;;;14.63;9.60;;;29.00;76.60;;;;;;1825042;76;20194;-85
2022/12/09 12:22:11;;;;;;;14.15;9.15;;;28.90;76.90;;;;;;1783348;78;21248;-85
2022/12/09 12:25:06;;;;;;;14.68;9.65;;;28.90;77.00;;;;;;1778737;78;21129;-85
2022/12/09 12:27:43;;;;;;;21.07;11.10;;;28.90;77.10;;;;;;1793617;78;21653;-85
2022/12/09 12:30:16;;;;;;;12.33;9.30;;;28.90;77.50;;;;;;1825270;77;21186;-85
2022/12/09 12:33:23;;;;;;;18.00;10.63;;;28.80;77.40;;;;;;1824652;77;21301;-85
2022/12/09 12:35:57;;;;;;;21.33;10.85;;;28.80;77.60;;;;;;1829110;75;21087;-86
2022/12/09 12:38:56;;;;;;;16.85;9.80;;;28.80;77.60;;;;;;1826750;77;21363;-86
2022/12/09 12:41:32;;;;;;;16.82;10.10;;;28.80;77.70;;;;;;1829406;77;21158;-83
2022/12/09 12:47:27;;;;;;;17.55;10.68;;;28.70;77.80;;;;;;1829016;77;21170;-85
2022/12/09 12:50:24;;;;;;;13.72;9.58;;;28.70;78.00;;;;;;1819589;77;21212;-84
2022/12/09 12:53:15;;;;;;;13.43;8.70;;;28.70;77.90;;;;;;1837842;76;21241;-84
2022/12/09 12:56:13;;;;;;;15.60;9.33;;;28.70;77.90;;;;;;1817256;77;21107;-84
2022/12/09 12:59:04;;;;;;;12.13;9.00;;;28.70;78.10;;;;;;1840393;76;21176;-83
2022/12/09 13:01:38;;;;;;;14.95;9.08;;;28.60;78.10;;;;;;1782331;79;21162;-84
2022/12/09 13:04:24;;;;;;;13.75;7.97;;;28.60;77.90;;;;;;1850886;75;21088;-84
2022/12/09 13:07:15;;;;;;;15.83;10.43;;;28.60;78.10;;;;;;1817076;77;21155;-85
2022/12/09 13:10:05;;;;;;;14.18;9.63;;;28.60;78.20;;;;;;1845069;76;21267;-86
2022/12/09 13:12:54;;;;;;;22.30;12.85;;;28.60;78.50;;;;;;1843464;75;21177;-84
2022/12/09 13:15:31;;;;;;;17.97;9.70;;;28.60;78.60;;;;;;1848956;76;21189;-84
2022/12/09 13:18:13;;;;;;;13.08;9.00;;;28.60;78.40;;;;;;1825227;77;21150;-86
2022/12/09 13:20:46;;;;;;;15.03;9.25;;;28.60;78.40;;;;;;1850138;76;21139;-85
2022/12/09 13:23:34;;;;;;;17.60;10.25;;;28.50;78.30;;;;;;1849995;76;21172;-84
2022/12/09 13:26:33;;;;;;;15.68;9.65;;;28.60;78.40;;;;;;1831569;76;21599;-83
2022/12/09 13:29:06;;;;;;;16.55;9.90;;;28.50;78.40;;;;;;1819123;77;21175;-84
2022/12/09 13:31:41;;;;;;;13.08;9.40;;;28.50;78.40;;;;;;1853559;75;21187;-84
2022/12/09 13:34:38;;;;;;;16.60;9.70;;;28.50;78.50;;;;;;1847579;76;21196;-84
2022/12/09 13:37:38;;;;;;;20.30;11.03;;;28.50;78.60;;;;;;1850496;76;21213;-78